Nearby METAR Reports

 

KDLZ - Delaware, Ohio, USA
Distance from station: SW 3mi, 5km
Updated: Sun, 31-May-2020 5:59pm EDT
Clear
Clear
 Wind from N
Wind: N 8 mph , 13 km/h
Temperature: 64°F , 18°C
Dew Point: 37°F , 3°C
Humidity: 37%
Barometer: 30.27 inHg , 1025.1 hPa
Clouds: Clear
Visibility: 10 miles , 16 km
2020/05/31 21:59 KDLZ 312159Z AUTO 36007KT 10SM CLR 18/03 A3027 RMK AO2
KOSU - Columbus/St Univ, Ohio, USA
Distance from station: S 16mi, 25km
Updated: Sun, 31-May-2020 5:53pm EDT
Clear
Clear
 Wind from N
Wind: N 7 mph , 11 km/h
Temperature: 64°F , 18°C
Dew Point: 39°F , 4°C
Humidity: 40%
Barometer: 30.26 inHg , 1024.7 hPa
Clouds: Clear
Visibility: 10 miles , 16 km
2020/05/31 21:53 KOSU 312153Z 36006KT 10SM CLR 18/04 A3026 RMK AO2 SLP245 T01830044
 
KMRT - Marysville, Ohio, USA
Distance from station: WSW 16mi, 26km
Updated: Sun, 31-May-2020 6:39pm EDT
Clear
Clear
 Wind from N
Wind: N 9 mph , 15 km/h
Temperature: 63°F , 17°C
Dew Point: 32°F , 0°C
Humidity: 32%
Barometer: 30.27 inHg , 1025.1 hPa
Clouds: Clear
Visibility: 10 miles , 16 km
2020/05/31 22:39 KMRT 312239Z AUTO 36008KT 10SM CLR 17/00 A3027 RMK AO1
KMNN - Marion, Ohio, USA
Distance from station: N 21mi, 34km
Updated: Sun, 31-May-2020 5:53pm EDT
Clear
Clear
 Wind from NNE
Wind: NNE 9 mph , 15 km/h, Gust: 18 mph , 30 km/h
Temperature: 63°F , 17°C
Dew Point: 39°F , 4°C
Humidity: 42%
Barometer: 30.29 inHg , 1025.7 hPa
Clouds: Clear
Visibility: 10 miles , 16 km
2020/05/31 21:53 KMNN 312153Z AUTO 02008G16KT 10SM CLR 17/04 A3029 RMK AO2 SLP257 T01670039
 
KCMH - Columbus, Ohio, USA
Distance from station: SSE 24mi, 38km
Updated: Sun, 31-May-2020 5:51pm EDT
Few Clouds
Few Clouds
 Wind from N
Wind: N 14 mph , 22 km/h
Temperature: 66°F , 19°C
Dew Point: 39°F , 4°C
Humidity: 37%
Barometer: 30.25 inHg , 1024.4 hPa
Clouds: Few Clouds
Visibility: 10 miles , 16 km
Cloud details: Few Clouds 5000 ft
2020/05/31 21:51 KCMH 312151Z 36012KT 10SM FEW050 19/04 A3025 RMK AO2 SLP243 T01890039
K4I3 - Mt Vernon/Knox, Ohio, USA
Distance from station: E 29mi, 46km
Updated: Sun, 31-May-2020 6:35pm EDT
Clear
Clear
 Wind from N
Wind: N 8 mph , 13 km/h
Temperature: 63°F , 17°C
Dew Point: 41°F , 5°C
Humidity: 45%
Barometer: 30.27 inHg , 1025.1 hPa
Clouds: Clear
Visibility: 10 miles , 16 km
2020/05/31 22:35 K4I3 312235Z AUTO 35007KT 10SM CLR 17/05 A3027 RMK AO2
 
KTZR - Columbus/Bolton, Ohio, USA
Distance from station: S 29mi, 46km
Updated: Sun, 31-May-2020 6:47pm EDT
Clear
Clear
 Wind from N
Wind: N 8 mph , 13 km/h, Gust: 14 mph , 22 km/h
Temperature: 64°F , 18°C
Dew Point: 37°F , 3°C
Humidity: 37%
Barometer: 30.26 inHg , 1024.7 hPa
Clouds: Clear
Visibility: 10 miles , 16 km
2020/05/31 22:47 KTZR 312247Z 36007G12KT 10SM SKC 18/03 A3026
KUYF - London, Ohio, USA
Distance from station: SW 33mi, 54km
Updated: Sun, 31-May-2020 6:35pm EDT
Clear
Clear
 Wind from NNE
Wind: NNE 10 mph , 17 km/h, Gust: 16 mph , 26 km/h
Temperature: 64°F , 18°C
Dew Point: 32°F , 0°C
Humidity: 30%
Barometer: 30.26 inHg , 1024.7 hPa
Clouds: Clear
Visibility: 10 miles , 16 km
2020/05/31 22:35 KUYF 312235Z AUTO 02009G14KT 10SM CLR 18/00 A3026 RMK AO2
 
KLCK - Rickenbacker Ang, Ohio, USA
Distance from station: SSE 35mi, 57km
Updated: Sun, 31-May-2020 5:55pm EDT
Clear
Clear
 Wind from NNW
Wind: NNW 8 mph , 13 km/h
Temperature: 66°F , 19°C
Dew Point: 37°F , 3°C
Humidity: 35%
Barometer: 30.25 inHg , 1024.4 hPa
Clouds: Clear
2020/05/31 21:55 KLCK 312155Z AUTO 33007KT CLR 19/03 A3025 RMK AO2 T01890032
KVTA - Newark, Ohio, USA
Distance from station: ESE 38mi, 61km
Updated: Sun, 31-May-2020 5:54pm EDT
Clear
Clear
 Wind from NNW
Wind: NNW 10 mph , 17 km/h
Temperature: 68°F , 20°C
Dew Point: 41°F , 5°C
Humidity: 38%
Barometer: 30.24 inHg , 1024 hPa
Clouds: Clear
Visibility: 10 miles , 16 km
2020/05/31 21:54 KVTA 312154Z AUTO 34009KT 10SM CLR 20/05 A3024 RMK AO2 SLP239 T02000050 $
 
KEDJ - Bellefontaine, Ohio, USA
Distance from station: W 39mi, 63km
Updated: Sun, 31-May-2020 6:35pm EDT
Clear
Clear
 Wind from NNE
Wind: NNE 10 mph , 17 km/h, Gust: 16 mph , 26 km/h
Temperature: 63°F , 17°C
Dew Point: 34°F , 1°C
Humidity: 34%
Barometer: 30.28 inHg , 1025.4 hPa
Clouds: Clear
Visibility: 10 miles , 16 km
2020/05/31 22:35 KEDJ 312235Z AUTO 03009G14KT 10SM CLR 17/01 A3028 RMK AO1
KLHQ - Lancaster, Ohio, USA
Distance from station: SSE 44mi, 71km
Updated: Sun, 31-May-2020 5:53pm EDT
Clear
Clear
 Wind from NNW
Wind: NNW 10 mph , 17 km/h
Temperature: 68°F , 20°C
Dew Point: 39°F , 4°C
Humidity: 35%
Barometer: 30.25 inHg , 1024.4 hPa
Clouds: Clear
Visibility: 10 miles , 16 km
2020/05/31 21:53 KLHQ 312153Z AUTO 33009KT 10SM CLR 20/04 A3025 RMK AO2 SLP242 T02000039
 
KMFD - Mansfield, Ohio, USA
Distance from station: NE 46mi, 73km
Updated: Sun, 31-May-2020 5:52pm EDT
Clear
Clear
 Wind from NNW
Wind: NNW 7 mph , 11 km/h
Temperature: 61°F , 16°C
Dew Point: 36°F , 2°C
Humidity: 39%
Barometer: 30.29 inHg , 1025.7 hPa
Clouds: Clear
Visibility: 10 miles , 16 km
2020/05/31 21:52 KMFD 312152Z AUTO 34006KT 10SM CLR 16/02 A3029 RMK AO2 SLP257 T01610017
KSGH - Springfield Muni, Ohio, USA
Distance from station: SW 52mi, 84km
Updated: Sun, 31-May-2020 5:56pm EDT
Clear
Clear
 Wind from NNW
Wind: NNW 10 mph , 17 km/h
Temperature: 66°F , 19°C
Dew Point: 41°F , 5°C
Humidity: 40%
Barometer: 30.26 inHg , 1024.7 hPa
Clouds: Clear
Visibility: 10 miles , 16 km
2020/05/31 21:56 KSGH 312156Z AUTO 34009KT 10SM CLR 19/05 A3026 RMK AO2 SLP248 T01890050
 
KI23 - Washington Court, Ohio, USA
Distance from station: SSW 55mi, 88km
Updated: Sun, 31-May-2020 6:35pm EDT
Clear
Clear
 Wind from NNW
Wind: NNW 8 mph , 13 km/h, Gust: 12 mph , 19 km/h
Temperature: 66°F , 19°C
Dew Point: 34°F , 1°C
Humidity: 30%
Barometer: 30.24 inHg , 1024 hPa
Clouds: Clear
Visibility: 10 miles , 16 km
2020/05/31 22:35 KI23 312235Z AUTO 34007G10KT 10SM CLR 19/01 A3024 RMK AO1
KAOH - Lima, Ohio, USA
Distance from station: WNW 56mi, 91km
Updated: Sun, 31-May-2020 5:53pm EDT
Clear
Clear
 Wind from NNW
Wind: NNW 5 mph , 7 km/h
Temperature: 63°F , 17°C
Dew Point: 37°F , 3°C
Humidity: 39%
Barometer: 30.28 inHg , 1025.4 hPa
Clouds: Clear
Visibility: 10 miles , 16 km
2020/05/31 21:53 KAOH 312153Z AUTO 33004KT 10SM CLR 17/03 A3028 RMK AO2 SLP255 T01720033
 
KFDY - Findlay, Ohio, USA
Distance from station: NNW 58mi, 93km
Updated: Sun, 31-May-2020 5:53pm EDT
Clear
Clear
 Wind from ENE
Wind: ENE 3 mph , 6 km/h
Temperature: 64°F , 18°C
Dew Point: 36°F , 2°C
Humidity: 34%
Barometer: 30.27 inHg , 1025.1 hPa
Clouds: Clear
Visibility: 10 miles , 16 km
2020/05/31 21:53 KFDY 312153Z AUTO 06003KT 10SM CLR 18/02 A3027 RMK AO2 SLP247 T01830017
KFFO - Wright Paterson, Ohio, USA
Distance from station: SW 61mi, 98km
Updated: Sun, 31-May-2020 5:56pm EDT
Clear
Clear
 Wind from N
Wind: N 7 mph , 11 km/h
Temperature: 68°F , 20°C
Dew Point: 39°F , 4°C
Humidity: 35%
Barometer: 30.25 inHg , 1024.4 hPa
Clouds: Clear
Visibility: 10 miles , 16 km
2020/05/31 21:56 KFFO 312156Z AUTO 36006KT 10SM CLR 20/04 A3025 RMK AO2 SLP246 T02010042
 
KRZT - Chillicothe, Ohio, USA
Distance from station: S 61mi, 98km
Updated: Sun, 31-May-2020 6:35pm EDT
Clear
Clear
 Wind from N
Wind: N 8 mph , 13 km/h, Gust: 16 mph , 26 km/h
Temperature: 66°F , 19°C
Dew Point: 32°F , 0°C
Humidity: 28%
Barometer: 30.23 inHg , 1023.7 hPa
Clouds: Clear
Visibility: 10 miles , 16 km
2020/05/31 22:35 KRZT 312235Z AUTO 01007G14KT 10SM CLR 19/00 A3023 RMK AO2 PWINO
KI19 - Dayton-Jackson, Ohio, USA
Distance from station: SW 65mi, 105km
Updated: Sun, 31-May-2020 6:35pm EDT
Clear
Clear
 Wind from N
Wind: N 3 mph , 6 km/h
Temperature: 68°F , 20°C
Dew Point: 37°F , 3°C
Humidity: 33%
Barometer: 30.27 inHg , 1025.1 hPa
Clouds: Clear
Visibility: 10 miles , 16 km
2020/05/31 22:35 KI19 312235Z AUTO 36003KT 10SM CLR 20/03 A3027 RMK AO2 T01970028